createdAt,value
2022-07-28T00:00:54.017Z,13.10
2022-07-28T00:06:56.010Z,13.00
2022-07-28T00:12:59.780Z,12.90
2022-07-28T00:19:02.335Z,12.80
2022-07-28T00:25:04.895Z,12.60
2022-07-28T00:31:09.496Z,12.50
2022-07-28T00:37:14.498Z,12.30
2022-07-28T00:43:17.006Z,12.20
2022-07-28T00:49:19.366Z,12.10
2022-07-28T00:55:23.510Z,11.90
2022-07-28T01:01:25.779Z,11.80
2022-07-28T01:07:41.730Z,11.70
2022-07-28T01:13:59.645Z,11.60
2022-07-28T01:20:06.106Z,11.50
2022-07-28T01:26:29.196Z,11.40
2022-07-28T01:32:46.500Z,11.30
2022-07-28T01:38:49.914Z,11.20
2022-07-28T01:44:55.576Z,11.00
2022-07-28T01:50:58.453Z,10.80
2022-07-28T01:57:02.409Z,10.70
2022-07-28T02:03:07.217Z,10.50
2022-07-28T02:09:10.786Z,10.40
2022-07-28T02:15:15.047Z,10.30
2022-07-28T02:21:18.168Z,10.30
2022-07-28T02:27:24.471Z,10.20
2022-07-28T02:33:59.757Z,10.20
2022-07-28T02:40:00.258Z,10.30
2022-07-28T02:46:10.961Z,10.30
2022-07-28T02:52:15.824Z,10.40
2022-07-28T02:58:29.564Z,10.30
2022-07-28T03:04:50.279Z,10.30
2022-07-28T03:11:10.754Z,10.30
2022-07-28T03:17:12.862Z,10.30
2022-07-28T03:23:16.232Z,10.40
2022-07-28T03:29:19.836Z,10.40
2022-07-28T03:35:23.526Z,10.40
2022-07-28T03:41:28.223Z,10.50
2022-07-28T03:47:30.296Z,10.50
2022-07-28T03:53:35.317Z,10.60
2022-07-28T03:59:37.320Z,10.70
2022-07-28T04:05:40.046Z,10.80
2022-07-28T04:11:43.603Z,10.80
2022-07-28T04:17:48.707Z,10.80
2022-07-28T04:23:50.820Z,10.80
2022-07-28T04:29:52.803Z,10.90
2022-07-28T04:35:54.876Z,11.00
2022-07-28T04:41:57.092Z,11.10
2022-07-28T04:47:59.124Z,11.10
2022-07-28T04:54:01.110Z,11.20
2022-07-28T05:00:12.697Z,11.20
2022-07-28T05:06:15.332Z,11.30
2022-07-28T05:12:17.332Z,11.50
2022-07-28T05:18:19.357Z,11.80
2022-07-28T05:24:21.352Z,12.00
2022-07-28T05:30:23.406Z,12.20
2022-07-28T05:36:25.381Z,12.20
2022-07-28T05:42:29.646Z,12.30
2022-07-28T05:48:31.808Z,12.40
2022-07-28T05:54:33.904Z,12.50
2022-07-28T06:00:36.026Z,12.80
2022-07-28T06:06:37.995Z,13.10
2022-07-28T06:12:42.631Z,13.40
2022-07-28T06:18:44.659Z,13.70
2022-07-28T06:24:46.644Z,14.00
2022-07-28T06:30:49.974Z,14.20
2022-07-28T06:36:52.760Z,14.60
2022-07-28T06:42:54.860Z,14.80
2022-07-28T06:48:56.881Z,15.20
2022-07-28T06:55:00.613Z,15.70
2022-07-28T07:01:07.736Z,16.20
2022-07-28T07:07:14.824Z,16.60
2022-07-28T07:13:19.120Z,17.00
2022-07-28T07:19:21.881Z,17.40
2022-07-28T07:25:23.926Z,17.30
2022-07-28T07:31:25.957Z,17.50
2022-07-28T07:37:28.333Z,17.90
2022-07-28T07:43:30.362Z,18.40
2022-07-28T07:49:43.476Z,18.70
2022-07-28T07:55:48.266Z,18.80
2022-07-28T08:01:54.694Z,19.10
2022-07-28T08:07:56.705Z,19.80
2022-07-28T08:13:58.685Z,20.00
2022-07-28T08:20:02.251Z,20.80
2022-07-28T08:26:04.547Z,21.70
2022-07-28T08:32:07.278Z,21.90
2022-07-28T08:38:11.318Z,21.70
2022-07-28T08:44:21.358Z,21.70
2022-07-28T08:50:24.597Z,22.00
2022-07-28T08:56:28.178Z,22.30
2022-07-28T09:02:31.996Z,22.90
2022-07-28T09:08:34.208Z,23.10
2022-07-28T09:14:36.371Z,23.60
2022-07-28T09:20:38.909Z,24.10
2022-07-28T09:27:02.031Z,24.50
2022-07-28T09:33:42.786Z,25.10
2022-07-28T09:39:47.752Z,25.10
2022-07-28T09:46:10.290Z,25.40
2022-07-28T09:52:12.473Z,26.10
2022-07-28T09:58:14.877Z,25.90
2022-07-28T10:04:28.035Z,26.40
2022-07-28T10:10:31.212Z,27.10
2022-07-28T10:16:46.886Z,27.00
2022-07-28T10:22:49.798Z,27.80
2022-07-28T10:28:53.948Z,27.10
2022-07-28T10:35:17.969Z,25.60
2022-07-28T10:41:22.227Z,24.20
2022-07-28T10:47:35.876Z,24.50
2022-07-28T10:53:54.560Z,24.80
2022-07-28T11:00:26.365Z,25.30
2022-07-28T11:06:40.211Z,27.10
2022-07-28T11:12:54.778Z,26.80
2022-07-28T11:19:36.952Z,26.60
2022-07-28T11:25:31.587Z,28.00
2022-07-28T11:31:48.276Z,29.90
2022-07-28T11:38:02.555Z,30.50
2022-07-28T11:44:28.891Z,30.70
2022-07-28T11:50:31.464Z,31.00
2022-07-28T11:56:37.287Z,31.50
2022-07-28T12:02:41.199Z,32.80
2022-07-28T12:08:56.994Z,32.50
2022-07-28T12:15:03.356Z,31.00
2022-07-28T12:21:08.477Z,30.80
2022-07-28T12:27:13.505Z,31.80
2022-07-28T12:33:29.010Z,31.80
2022-07-28T12:39:36.717Z,31.50
2022-07-28T12:45:46.549Z,30.80
2022-07-28T12:51:48.765Z,29.60
2022-07-28T12:57:52.835Z,31.80
2022-07-28T13:03:54.841Z,32.30
2022-07-28T13:10:11.544Z,32.70
2022-07-28T13:16:22.031Z,33.20
2022-07-28T13:22:28.950Z,32.50
2022-07-28T13:28:31.132Z,33.30
2022-07-28T13:34:33.109Z,34.50
2022-07-28T13:40:35.107Z,33.90
2022-07-28T13:46:40.435Z,32.90
2022-07-28T13:52:49.053Z,33.40
2022-07-28T13:58:53.572Z,34.30
2022-07-28T14:04:55.534Z,35.20
2022-07-28T14:10:59.101Z,35.30
2022-07-28T14:17:14.474Z,35.80
2022-07-28T14:23:23.055Z,35.60
2022-07-28T14:29:25.931Z,34.70
2022-07-28T14:35:27.888Z,34.20
2022-07-28T14:41:29.960Z,34.10
2022-07-28T14:47:44.622Z,34.60
2022-07-28T14:53:51.770Z,33.50
2022-07-28T14:59:54.186Z,33.70
2022-07-28T15:05:57.763Z,34.80
2022-07-28T15:11:59.925Z,34.40
2022-07-28T15:18:03.710Z,34.50
2022-07-28T15:24:08.967Z,35.30
2022-07-28T15:30:12.085Z,34.90
2022-07-28T15:36:14.637Z,35.20
2022-07-28T15:42:16.705Z,35.60
2022-07-28T15:48:18.678Z,34.90
2022-07-28T15:54:20.737Z,34.90
2022-07-28T16:00:22.828Z,34.40
2022-07-28T16:06:26.486Z,34.80
2022-07-28T16:12:29.274Z,35.10
2022-07-28T16:18:31.824Z,34.90
2022-07-28T16:24:33.891Z,34.00
2022-07-28T16:30:36.026Z,34.80
2022-07-28T16:36:41.682Z,34.50
2022-07-28T16:42:44.432Z,33.50
2022-07-28T16:48:46.422Z,33.20
2022-07-28T16:54:48.441Z,32.60
2022-07-28T17:00:51.024Z,33.00
2022-07-28T17:06:53.048Z,33.10
2022-07-28T17:12:55.293Z,33.60
2022-07-28T17:18:57.743Z,33.80
2022-07-28T17:24:59.705Z,33.70
2022-07-28T17:31:01.890Z,34.00
2022-07-28T17:37:04.922Z,33.90
2022-07-28T17:43:07.043Z,33.40
2022-07-28T17:49:09.223Z,33.10
2022-07-28T17:55:30.187Z,33.50
2022-07-28T18:01:33.523Z,33.00
2022-07-28T18:07:49.021Z,31.60
2022-07-28T18:14:04.252Z,31.00
2022-07-28T18:20:08.790Z,30.10
2022-07-28T18:26:10.907Z,28.70
2022-07-28T18:32:14.536Z,27.40
2022-07-28T18:38:16.539Z,26.10
2022-07-28T18:44:19.651Z,24.70
2022-07-28T18:50:31.076Z,23.90
2022-07-28T18:56:33.764Z,23.10
2022-07-28T19:02:37.612Z,22.40
2022-07-28T19:08:39.633Z,22.10
2022-07-28T19:14:41.699Z,21.70
2022-07-28T19:20:46.772Z,21.40
2022-07-28T19:26:51.211Z,20.90
2022-07-28T19:32:53.206Z,20.50
2022-07-28T19:38:55.257Z,20.20
2022-07-28T19:44:57.347Z,20.00
2022-07-28T19:51:00.590Z,19.80
2022-07-28T19:57:02.578Z,19.70
2022-07-28T20:04:02.522Z,19.60
2022-07-28T20:09:34.847Z,19.30
2022-07-28T20:15:38.772Z,19.10
2022-07-28T20:21:40.882Z,19.10
2022-07-28T20:27:43.228Z,19.00
2022-07-28T20:33:45.223Z,19.10
2022-07-28T20:39:47.187Z,19.10
2022-07-28T20:45:49.396Z,19.10
2022-07-28T20:51:51.534Z,19.20
2022-07-28T20:57:57.474Z,19.20
2022-07-28T21:03:59.464Z,19.30
2022-07-28T21:10:01.461Z,19.20
2022-07-28T21:16:03.811Z,19.00
2022-07-28T21:22:05.908Z,18.80
2022-07-28T21:28:43.324Z,18.50
2022-07-28T21:34:45.519Z,18.30
2022-07-28T21:40:47.533Z,18.10
2022-07-28T21:46:49.576Z,17.90
2022-07-28T21:52:51.575Z,17.70
2022-07-28T21:58:54.001Z,17.60
2022-07-28T22:04:56.068Z,17.50
2022-07-28T22:10:58.842Z,17.50
2022-07-28T22:17:01.444Z,17.40
2022-07-28T22:23:03.646Z,17.30
2022-07-28T22:29:20.169Z,17.30
2022-07-28T22:35:22.870Z,17.20
2022-07-28T22:41:24.832Z,17.20
2022-07-28T22:47:28.528Z,17.20
2022-07-28T22:53:30.496Z,17.20
2022-07-28T22:59:35.703Z,17.20
2022-07-28T23:05:42.064Z,17.20
2022-07-28T23:11:54.528Z,17.20
2022-07-28T23:17:57.646Z,17.30
2022-07-28T23:23:59.629Z,17.40
2022-07-28T23:30:01.712Z,17.50
2022-07-28T23:36:06.465Z,17.50
2022-07-28T23:42:08.539Z,17.60
2022-07-28T23:48:10.508Z,17.60
2022-07-28T23:54:14.618Z,17.60
